sensor_id;sensor_type;location;lat;lon;timestamp;temperature;humidity
70830;SHT30;58451;51.550;7.208;2024-02-28T00:01:11;0.01;80.40
70830;SHT30;58451;51.550;7.208;2024-02-28T00:02:43;0.00;80.40
70830;SHT30;58451;51.550;7.208;2024-02-28T00:04:16;-0.01;80.40
70830;SHT30;58451;51.550;7.208;2024-02-28T00:05:48;-0.02;80.47
70830;SHT30;58451;51.550;7.208;2024-02-28T00:07:20;-0.03;80.50
70830;SHT30;58451;51.550;7.208;2024-02-28T00:08:52;-0.02;80.57
70830;SHT30;58451;51.550;7.208;2024-02-28T00:10:26;-0.04;80.60
70830;SHT30;58451;51.550;7.208;2024-02-28T00:11:57;-0.03;80.60
70830;SHT30;58451;51.550;7.208;2024-02-28T00:13:29;-0.04;80.58
70830;SHT30;58451;51.550;7.208;2024-02-28T00:15:01;-0.05;80.60
70830;SHT30;58451;51.550;7.208;2024-02-28T00:16:35;-0.05;80.60
70830;SHT30;58451;51.550;7.208;2024-02-28T00:18:06;-0.06;80.63
70830;SHT30;58451;51.550;7.208;2024-02-28T00:19:39;-0.08;80.70
70830;SHT30;58451;51.550;7.208;2024-02-28T00:21:10;-0.07;80.72
70830;SHT30;58451;51.550;7.208;2024-02-28T00:22:42;-0.08;80.70
70830;SHT30;58451;51.550;7.208;2024-02-28T00:24:16;-0.08;80.72
70830;SHT30;58451;51.550;7.208;2024-02-28T00:25:48;-0.08;80.77
70830;SHT30;58451;51.550;7.208;2024-02-28T00:27:20;-0.09;80.77
70830;SHT30;58451;51.550;7.208;2024-02-28T00:28:52;-0.10;80.78
70830;SHT30;58451;51.550;7.208;2024-02-28T00:30:25;-0.10;80.83
70830;SHT30;58451;51.550;7.208;2024-02-28T00:31:57;-0.10;80.90
70830;SHT30;58451;51.550;7.208;2024-02-28T00:33:29;-0.12;80.90
70830;SHT30;58451;51.550;7.208;2024-02-28T00:35:01;-0.14;80.90
70830;SHT30;58451;51.550;7.208;2024-02-28T00:36:33;-0.16;80.90
70830;SHT30;58451;51.550;7.208;2024-02-28T00:38:22;-0.19;80.90
70830;SHT30;58451;51.550;7.208;2024-02-28T00:39:54;-0.22;80.88
70830;SHT30;58451;51.550;7.208;2024-02-28T00:41:26;-0.25;80.90
70830;SHT30;58451;51.550;7.208;2024-02-28T00:42:57;-0.25;80.90
70830;SHT30;58451;51.550;7.208;2024-02-28T00:44:29;-0.28;80.90
70830;SHT30;58451;51.550;7.208;2024-02-28T00:46:01;-0.31;80.90
70830;SHT30;58451;51.550;7.208;2024-02-28T00:47:35;-0.31;80.90
70830;SHT30;58451;51.550;7.208;2024-02-28T00:49:07;-0.33;80.90
70830;SHT30;58451;51.550;7.208;2024-02-28T00:50:38;-0.32;80.93
70830;SHT30;58451;51.550;7.208;2024-02-28T00:52:10;-0.36;80.90
70830;SHT30;58451;51.550;7.208;2024-02-28T00:53:42;-0.36;80.98
70830;SHT30;58451;51.550;7.208;2024-02-28T00:55:14;-0.36;81.00
70830;SHT30;58451;51.550;7.208;2024-02-28T00:56:46;-0.38;80.98
70830;SHT30;58451;51.550;7.208;2024-02-28T00:58:19;-0.38;80.98
70830;SHT30;58451;51.550;7.208;2024-02-28T00:59:51;-0.39;81.00
70830;SHT30;58451;51.550;7.208;2024-02-28T01:01:22;-0.41;81.00
70830;SHT30;58451;51.550;7.208;2024-02-28T01:02:54;-0.42;81.00
70830;SHT30;58451;51.550;7.208;2024-02-28T01:04:27;-0.42;81.00
70830;SHT30;58451;51.550;7.208;2024-02-28T01:05:59;-0.44;81.00
70830;SHT30;58451;51.550;7.208;2024-02-28T01:07:32;-0.45;81.02
70830;SHT30;58451;51.550;7.208;2024-02-28T01:09:04;-0.46;81.03
70830;SHT30;58451;51.550;7.208;2024-02-28T01:10:36;-0.46;81.10
70830;SHT30;58451;51.550;7.208;2024-02-28T01:12:09;-0.45;81.10
70830;SHT30;58451;51.550;7.208;2024-02-28T01:13:41;-0.45;81.10
70830;SHT30;58451;51.550;7.208;2024-02-28T01:15:14;-0.43;81.18
70830;SHT30;58451;51.550;7.208;2024-02-28T01:16:46;-0.41;81.20
70830;SHT30;58451;51.550;7.208;2024-02-28T01:18:18;-0.41;81.18
70830;SHT30;58451;51.550;7.208;2024-02-28T01:19:50;-0.41;81.20
70830;SHT30;58451;51.550;7.208;2024-02-28T01:21:21;-0.42;81.20
70830;SHT30;58451;51.550;7.208;2024-02-28T01:22:53;-0.42;81.22
70830;SHT30;58451;51.550;7.208;2024-02-28T01:24:25;-0.41;81.30
70830;SHT30;58451;51.550;7.208;2024-02-28T01:25:57;-0.41;81.30
70830;SHT30;58451;51.550;7.208;2024-02-28T01:27:29;-0.42;81.28
70830;SHT30;58451;51.550;7.208;2024-02-28T01:29:01;-0.45;81.30
70830;SHT30;58451;51.550;7.208;2024-02-28T01:30:33;-0.44;81.30
70830;SHT30;58451;51.550;7.208;2024-02-28T01:32:05;-0.44;81.47
70830;SHT30;58451;51.550;7.208;2024-02-28T01:33:37;-0.43;81.42
70830;SHT30;58451;51.550;7.208;2024-02-28T01:35:09;-0.41;81.50
70830;SHT30;58451;51.550;7.208;2024-02-28T01:36:40;-0.41;81.50
70830;SHT30;58451;51.550;7.208;2024-02-28T01:38:12;-0.40;81.50
70830;SHT30;58451;51.550;7.208;2024-02-28T01:39:44;-0.38;81.58
70830;SHT30;58451;51.550;7.208;2024-02-28T01:41:16;-0.36;81.60
70830;SHT30;58451;51.550;7.208;2024-02-28T01:42:48;-0.32;81.70
70830;SHT30;58451;51.550;7.208;2024-02-28T01:44:20;-0.29;81.68
70830;SHT30;58451;51.550;7.208;2024-02-28T01:45:53;-0.28;81.68
70830;SHT30;58451;51.550;7.208;2024-02-28T01:47:25;-0.27;81.70
70830;SHT30;58451;51.550;7.208;2024-02-28T01:48:58;-0.28;81.68
70830;SHT30;58451;51.550;7.208;2024-02-28T01:50:30;-0.29;81.70
70830;SHT30;58451;51.550;7.208;2024-02-28T01:52:03;-0.29;81.70
70830;SHT30;58451;51.550;7.208;2024-02-28T01:53:36;-0.28;81.70
70830;SHT30;58451;51.550;7.208;2024-02-28T01:55:08;-0.28;81.70
70830;SHT30;58451;51.550;7.208;2024-02-28T01:56:40;-0.29;81.70
70830;SHT30;58451;51.550;7.208;2024-02-28T01:58:13;-0.30;81.70
70830;SHT30;58451;51.550;7.208;2024-02-28T01:59:45;-0.29;81.72
70830;SHT30;58451;51.550;7.208;2024-02-28T02:01:18;-0.28;81.70
70830;SHT30;58451;51.550;7.208;2024-02-28T02:02:53;-0.28;81.70
70830;SHT30;58451;51.550;7.208;2024-02-28T02:04:25;-0.28;81.72
70830;SHT30;58451;51.550;7.208;2024-02-28T02:05:57;-0.27;81.70
70830;SHT30;58451;51.550;7.208;2024-02-28T02:07:30;-0.28;81.70
70830;SHT30;58451;51.550;7.208;2024-02-28T02:09:02;-0.26;81.75
70830;SHT30;58451;51.550;7.208;2024-02-28T02:10:34;-0.27;81.75
70830;SHT30;58451;51.550;7.208;2024-02-28T02:12:06;-0.27;81.80
70830;SHT30;58451;51.550;7.208;2024-02-28T02:13:51;-0.26;81.80
70830;SHT30;58451;51.550;7.208;2024-02-28T02:15:24;-0.27;81.80
70830;SHT30;58451;51.550;7.208;2024-02-28T02:16:56;-0.26;81.80
70830;SHT30;58451;51.550;7.208;2024-02-28T02:18:28;-0.25;81.80
70830;SHT30;58451;51.550;7.208;2024-02-28T02:20:00;-0.24;81.80
70830;SHT30;58451;51.550;7.208;2024-02-28T02:21:34;-0.22;81.90
70830;SHT30;58451;51.550;7.208;2024-02-28T02:23:12;-0.20;81.90
70830;SHT30;58451;51.550;7.208;2024-02-28T02:24:45;-0.18;81.90
70830;SHT30;58451;51.550;7.208;2024-02-28T02:26:17;-0.14;81.90
70830;SHT30;58451;51.550;7.208;2024-02-28T02:27:50;-0.10;81.90
70830;SHT30;58451;51.550;7.208;2024-02-28T02:29:22;-0.06;81.90
70830;SHT30;58451;51.550;7.208;2024-02-28T02:30:53;-0.01;81.93
70830;SHT30;58451;51.550;7.208;2024-02-28T02:32:25;0.04;81.97
70830;SHT30;58451;51.550;7.208;2024-02-28T02:33:58;0.08;81.98
70830;SHT30;58451;51.550;7.208;2024-02-28T02:35:33;0.14;81.98
70830;SHT30;58451;51.550;7.208;2024-02-28T02:37:05;0.19;82.00
70830;SHT30;58451;51.550;7.208;2024-02-28T02:38:40;0.25;82.08
70830;SHT30;58451;51.550;7.208;2024-02-28T02:40:12;0.33;82.25
70830;SHT30;58451;51.550;7.208;2024-02-28T02:41:44;0.38;82.18
70830;SHT30;58451;51.550;7.208;2024-02-28T02:43:16;0.43;82.25
70830;SHT30;58451;51.550;7.208;2024-02-28T02:44:48;0.48;82.32
70830;SHT30;58451;51.550;7.208;2024-02-28T02:46:20;0.54;82.30
70830;SHT30;58451;51.550;7.208;2024-02-28T02:47:51;0.58;82.23
70830;SHT30;58451;51.550;7.208;2024-02-28T02:49:23;0.61;82.27
70830;SHT30;58451;51.550;7.208;2024-02-28T02:50:55;0.67;82.30
70830;SHT30;58451;51.550;7.208;2024-02-28T02:52:27;0.71;82.38
70830;SHT30;58451;51.550;7.208;2024-02-28T02:53:59;0.76;82.47
70830;SHT30;58451;51.550;7.208;2024-02-28T02:55:31;0.80;82.50
70830;SHT30;58451;51.550;7.208;2024-02-28T02:57:03;0.86;82.50
70830;SHT30;58451;51.550;7.208;2024-02-28T02:58:35;0.91;82.52
70830;SHT30;58451;51.550;7.208;2024-02-28T03:00:08;0.95;82.60
70830;SHT30;58451;51.550;7.208;2024-02-28T03:01:43;1.01;82.60
70830;SHT30;58451;51.550;7.208;2024-02-28T03:03:15;1.06;82.60
70830;SHT30;58451;51.550;7.208;2024-02-28T03:04:47;1.12;82.62
70830;SHT30;58451;51.550;7.208;2024-02-28T03:06:19;1.17;82.72
70830;SHT30;58451;51.550;7.208;2024-02-28T03:07:51;1.20;82.72
70830;SHT30;58451;51.550;7.208;2024-02-28T03:09:22;1.25;82.73
70830;SHT30;58451;51.550;7.208;2024-02-28T03:10:54;1.31;82.78
70830;SHT30;58451;51.550;7.208;2024-02-28T03:12:26;1.36;82.80
70830;SHT30;58451;51.550;7.208;2024-02-28T03:13:58;1.39;82.90
70830;SHT30;58451;51.550;7.208;2024-02-28T03:15:30;1.42;82.98
70830;SHT30;58451;51.550;7.208;2024-02-28T03:17:02;1.47;83.00
70830;SHT30;58451;51.550;7.208;2024-02-28T03:18:34;1.52;83.00
70830;SHT30;58451;51.550;7.208;2024-02-28T03:20:06;1.57;83.00
70830;SHT30;58451;51.550;7.208;2024-02-28T03:21:39;1.61;83.00
70830;SHT30;58451;51.550;7.208;2024-02-28T03:23:11;1.66;82.95
70830;SHT30;58451;51.550;7.208;2024-02-28T03:24:43;1.70;82.97
70830;SHT30;58451;51.550;7.208;2024-02-28T03:26:14;1.74;83.00
70830;SHT30;58451;51.550;7.208;2024-02-28T03:27:47;1.77;83.00
70830;SHT30;58451;51.550;7.208;2024-02-28T03:29:19;1.82;83.02
70830;SHT30;58451;51.550;7.208;2024-02-28T03:30:52;1.86;83.00
70830;SHT30;58451;51.550;7.208;2024-02-28T03:32:23;1.89;83.00
70830;SHT30;58451;51.550;7.208;2024-02-28T03:33:55;1.92;83.00
70830;SHT30;58451;51.550;7.208;2024-02-28T03:35:27;1.94;83.05
70830;SHT30;58451;51.550;7.208;2024-02-28T03:36:59;1.96;83.02
70830;SHT30;58451;51.550;7.208;2024-02-28T03:38:31;1.97;83.37
70830;SHT30;58451;51.550;7.208;2024-02-28T03:40:03;1.98;83.47
70830;SHT30;58451;51.550;7.208;2024-02-28T03:41:35;2.02;83.47
70830;SHT30;58451;51.550;7.208;2024-02-28T03:43:07;2.04;83.42
70830;SHT30;58451;51.550;7.208;2024-02-28T03:44:39;2.06;83.33
70830;SHT30;58451;51.550;7.208;2024-02-28T03:46:14;2.09;83.28
70830;SHT30;58451;51.550;7.208;2024-02-28T03:47:46;2.11;83.23
70830;SHT30;58451;51.550;7.208;2024-02-28T03:49:18;2.14;83.25
70830;SHT30;58451;51.550;7.208;2024-02-28T03:50:50;2.16;83.30
70830;SHT30;58451;51.550;7.208;2024-02-28T03:52:22;2.17;83.55
70830;SHT30;58451;51.550;7.208;2024-02-28T03:53:55;2.18;83.58
70830;SHT30;58451;51.550;7.208;2024-02-28T03:55:27;2.20;83.55
70830;SHT30;58451;51.550;7.208;2024-02-28T03:56:59;2.23;83.50
70830;SHT30;58451;51.550;7.208;2024-02-28T03:58:31;2.25;83.53
70830;SHT30;58451;51.550;7.208;2024-02-28T04:00:03;2.26;83.60
70830;SHT30;58451;51.550;7.208;2024-02-28T04:01:42;2.28;83.55
70830;SHT30;58451;51.550;7.208;2024-02-28T04:03:14;2.30;83.60
70830;SHT30;58451;51.550;7.208;2024-02-28T04:04:46;2.33;83.57
70830;SHT30;58451;51.550;7.208;2024-02-28T04:06:18;2.37;83.50
70830;SHT30;58451;51.550;7.208;2024-02-28T04:07:49;2.38;83.50
70830;SHT30;58451;51.550;7.208;2024-02-28T04:09:21;2.41;83.50
70830;SHT30;58451;51.550;7.208;2024-02-28T04:10:53;2.43;83.50
70830;SHT30;58451;51.550;7.208;2024-02-28T04:12:25;2.45;83.47
70830;SHT30;58451;51.550;7.208;2024-02-28T04:13:57;2.48;83.45
70830;SHT30;58451;51.550;7.208;2024-02-28T04:15:30;2.49;83.52
70830;SHT30;58451;51.550;7.208;2024-02-28T04:17:02;2.52;83.55
70830;SHT30;58451;51.550;7.208;2024-02-28T04:18:34;2.54;83.62
70830;SHT30;58451;51.550;7.208;2024-02-28T04:20:10;2.55;83.67
70830;SHT30;58451;51.550;7.208;2024-02-28T04:21:43;2.58;83.73
70830;SHT30;58451;51.550;7.208;2024-02-28T04:23:15;2.60;83.70
70830;SHT30;58451;51.550;7.208;2024-02-28T04:24:48;2.62;83.70
70830;SHT30;58451;51.550;7.208;2024-02-28T04:26:20;2.65;83.63
70830;SHT30;58451;51.550;7.208;2024-02-28T04:27:51;2.67;83.70
70830;SHT30;58451;51.550;7.208;2024-02-28T04:29:23;2.68;83.83
70830;SHT30;58451;51.550;7.208;2024-02-28T04:30:55;2.70;83.72
70830;SHT30;58451;51.550;7.208;2024-02-28T04:32:27;2.72;83.75
70830;SHT30;58451;51.550;7.208;2024-02-28T04:33:59;2.73;83.75
70830;SHT30;58451;51.550;7.208;2024-02-28T04:35:31;2.74;83.72
70830;SHT30;58451;51.550;7.208;2024-02-28T04:37:03;2.76;83.77
70830;SHT30;58451;51.550;7.208;2024-02-28T04:38:35;2.76;83.83
70830;SHT30;58451;51.550;7.208;2024-02-28T04:40:07;2.79;83.78
70830;SHT30;58451;51.550;7.208;2024-02-28T04:41:40;2.81;83.75
70830;SHT30;58451;51.550;7.208;2024-02-28T04:43:12;2.83;83.75
70830;SHT30;58451;51.550;7.208;2024-02-28T04:44:43;2.83;83.78
70830;SHT30;58451;51.550;7.208;2024-02-28T04:46:15;2.87;83.75
70830;SHT30;58451;51.550;7.208;2024-02-28T04:47:47;2.89;83.73
70830;SHT30;58451;51.550;7.208;2024-02-28T04:49:19;2.92;83.70
70830;SHT30;58451;51.550;7.208;2024-02-28T04:50:51;2.94;83.67
70830;SHT30;58451;51.550;7.208;2024-02-28T04:52:23;2.97;83.68
70830;SHT30;58451;51.550;7.208;2024-02-28T04:53:56;2.99;83.87
70830;SHT30;58451;51.550;7.208;2024-02-28T04:55:28;3.01;83.85
70830;SHT30;58451;51.550;7.208;2024-02-28T04:57:00;3.03;83.80
70830;SHT30;58451;51.550;7.208;2024-02-28T04:58:32;3.04;83.90
70830;SHT30;58451;51.550;7.208;2024-02-28T05:00:04;3.07;83.92
70830;SHT30;58451;51.550;7.208;2024-02-28T05:01:36;3.09;84.05
70830;SHT30;58451;51.550;7.208;2024-02-28T05:03:10;3.12;84.00
70830;SHT30;58451;51.550;7.208;2024-02-28T05:04:42;3.14;84.08
70830;SHT30;58451;51.550;7.208;2024-02-28T05:06:14;3.17;84.17
70830;SHT30;58451;51.550;7.208;2024-02-28T05:07:46;3.20;84.05
70830;SHT30;58451;51.550;7.208;2024-02-28T05:09:18;3.23;83.93
70830;SHT30;58451;51.550;7.208;2024-02-28T05:10:50;3.26;83.93
70830;SHT30;58451;51.550;7.208;2024-02-28T05:12:23;3.29;84.00
70830;SHT30;58451;51.550;7.208;2024-02-28T05:13:55;3.31;83.95
70830;SHT30;58451;51.550;7.208;2024-02-28T05:16:36;3.36;83.90
70830;SHT30;58451;51.550;7.208;2024-02-28T05:18:08;3.36;83.90
70830;SHT30;58451;51.550;7.208;2024-02-28T05:19:40;3.37;83.92
70830;SHT30;58451;51.550;7.208;2024-02-28T05:21:12;3.38;83.97
70830;SHT30;58451;51.550;7.208;2024-02-28T05:22:44;3.38;84.17
70830;SHT30;58451;51.550;7.208;2024-02-28T05:24:17;3.38;84.53
70830;SHT30;58451;51.550;7.208;2024-02-28T05:25:49;3.39;84.35
70830;SHT30;58451;51.550;7.208;2024-02-28T05:27:21;3.41;84.08
70830;SHT30;58451;51.550;7.208;2024-02-28T05:28:56;3.43;83.98
70830;SHT30;58451;51.550;7.208;2024-02-28T05:30:28;3.46;83.90
70830;SHT30;58451;51.550;7.208;2024-02-28T05:32:01;3.48;83.88
70830;SHT30;58451;51.550;7.208;2024-02-28T05:33:37;3.50;83.87
70830;SHT30;58451;51.550;7.208;2024-02-28T05:35:12;3.52;83.80
70830;SHT30;58451;51.550;7.208;2024-02-28T05:36:45;3.53;83.72
70830;SHT30;58451;51.550;7.208;2024-02-28T05:38:18;3.56;83.77
70830;SHT30;58451;51.550;7.208;2024-02-28T05:39:49;3.55;83.85
70830;SHT30;58451;51.550;7.208;2024-02-28T05:41:21;3.56;83.95
70830;SHT30;58451;51.550;7.208;2024-02-28T05:42:54;3.56;83.87
70830;SHT30;58451;51.550;7.208;2024-02-28T05:44:26;3.57;83.90
70830;SHT30;58451;51.550;7.208;2024-02-28T05:45:58;3.57;83.97
70830;SHT30;58451;51.550;7.208;2024-02-28T05:47:30;3.58;84.10
70830;SHT30;58451;51.550;7.208;2024-02-28T05:49:03;3.59;84.05
70830;SHT30;58451;51.550;7.208;2024-02-28T05:50:36;3.59;84.12
70830;SHT30;58451;51.550;7.208;2024-02-28T05:52:08;3.60;84.05
70830;SHT30;58451;51.550;7.208;2024-02-28T05:53:40;3.62;84.00
70830;SHT30;58451;51.550;7.208;2024-02-28T05:55:14;3.64;84.00
70830;SHT30;58451;51.550;7.208;2024-02-28T05:56:46;3.66;83.88
70830;SHT30;58451;51.550;7.208;2024-02-28T05:58:19;3.67;83.87
70830;SHT30;58451;51.550;7.208;2024-02-28T05:59:51;3.68;83.82
70830;SHT30;58451;51.550;7.208;2024-02-28T06:01:23;3.70;83.73
70830;SHT30;58451;51.550;7.208;2024-02-28T06:02:55;3.73;83.75
70830;SHT30;58451;51.550;7.208;2024-02-28T06:04:27;3.73;83.80
70830;SHT30;58451;51.550;7.208;2024-02-28T06:05:58;3.73;83.80
70830;SHT30;58451;51.550;7.208;2024-02-28T06:07:30;3.76;83.87
70830;SHT30;58451;51.550;7.208;2024-02-28T06:09:02;3.76;83.82
70830;SHT30;58451;51.550;7.208;2024-02-28T06:10:34;3.77;83.80
70830;SHT30;58451;51.550;7.208;2024-02-28T06:12:06;3.78;83.90
70830;SHT30;58451;51.550;7.208;2024-02-28T06:13:42;3.78;83.88
70830;SHT30;58451;51.550;7.208;2024-02-28T06:15:16;3.79;83.78
70830;SHT30;58451;51.550;7.208;2024-02-28T06:16:47;3.80;83.75
70830;SHT30;58451;51.550;7.208;2024-02-28T06:18:19;3.82;83.63
70830;SHT30;58451;51.550;7.208;2024-02-28T06:19:54;3.83;83.65
70830;SHT30;58451;51.550;7.208;2024-02-28T06:21:26;3.83;83.73
70830;SHT30;58451;51.550;7.208;2024-02-28T06:22:58;3.85;83.68
70830;SHT30;58451;51.550;7.208;2024-02-28T06:24:38;3.85;83.68
70830;SHT30;58451;51.550;7.208;2024-02-28T06:26:10;3.87;83.67
70830;SHT30;58451;51.550;7.208;2024-02-28T06:27:48;3.88;83.63
70830;SHT30;58451;51.550;7.208;2024-02-28T06:29:20;3.89;83.68
70830;SHT30;58451;51.550;7.208;2024-02-28T06:30:53;3.90;83.85
70830;SHT30;58451;51.550;7.208;2024-02-28T06:32:25;3.91;83.97
70830;SHT30;58451;51.550;7.208;2024-02-28T06:33:57;3.92;83.88
70830;SHT30;58451;51.550;7.208;2024-02-28T06:35:29;3.94;83.87
70830;SHT30;58451;51.550;7.208;2024-02-28T06:37:01;3.96;83.82
70830;SHT30;58451;51.550;7.208;2024-02-28T06:38:33;3.98;83.72
70830;SHT30;58451;51.550;7.208;2024-02-28T06:40:06;4.00;83.68
70830;SHT30;58451;51.550;7.208;2024-02-28T06:41:40;4.02;83.65
70830;SHT30;58451;51.550;7.208;2024-02-28T06:43:12;4.04;83.57
70830;SHT30;58451;51.550;7.208;2024-02-28T06:44:43;4.06;83.60
70830;SHT30;58451;51.550;7.208;2024-02-28T06:46:15;4.07;83.60
70830;SHT30;58451;51.550;7.208;2024-02-28T06:47:47;4.11;83.62
70830;SHT30;58451;51.550;7.208;2024-02-28T06:49:20;4.11;83.57
70830;SHT30;58451;51.550;7.208;2024-02-28T06:50:52;4.13;83.62
70830;SHT30;58451;51.550;7.208;2024-02-28T06:52:23;4.15;83.58
70830;SHT30;58451;51.550;7.208;2024-02-28T06:53:55;4.16;83.52
70830;SHT30;58451;51.550;7.208;2024-02-28T06:55:27;4.18;83.65
70830;SHT30;58451;51.550;7.208;2024-02-28T06:56:59;4.18;83.60
70830;SHT30;58451;51.550;7.208;2024-02-28T06:58:31;4.20;83.53
70830;SHT30;58451;51.550;7.208;2024-02-28T07:00:06;4.21;83.45
70830;SHT30;58451;51.550;7.208;2024-02-28T07:01:40;4.23;83.33
70830;SHT30;58451;51.550;7.208;2024-02-28T07:03:13;4.25;83.42
70830;SHT30;58451;51.550;7.208;2024-02-28T07:04:45;4.26;83.35
70830;SHT30;58451;51.550;7.208;2024-02-28T07:06:17;4.29;83.35
70830;SHT30;58451;51.550;7.208;2024-02-28T07:07:48;4.30;83.40
70830;SHT30;58451;51.550;7.208;2024-02-28T07:09:20;4.31;83.53
70830;SHT30;58451;51.550;7.208;2024-02-28T07:10:52;4.33;83.40
70830;SHT30;58451;51.550;7.208;2024-02-28T07:12:25;4.35;83.33
70830;SHT30;58451;51.550;7.208;2024-02-28T07:13:57;4.38;83.25
70830;SHT30;58451;51.550;7.208;2024-02-28T07:15:33;4.42;83.25
70830;SHT30;58451;51.550;7.208;2024-02-28T07:17:05;4.43;83.23
70830;SHT30;58451;51.550;7.208;2024-02-28T07:18:38;4.46;83.23
70830;SHT30;58451;51.550;7.208;2024-02-28T07:20:10;4.50;83.13
70830;SHT30;58451;51.550;7.208;2024-02-28T07:21:44;4.53;83.12
70830;SHT30;58451;51.550;7.208;2024-02-28T07:23:16;4.55;82.98
70830;SHT30;58451;51.550;7.208;2024-02-28T07:24:48;4.56;82.95
70830;SHT30;58451;51.550;7.208;2024-02-28T07:26:20;4.60;82.97
70830;SHT30;58451;51.550;7.208;2024-02-28T07:27:58;4.62;82.90
70830;SHT30;58451;51.550;7.208;2024-02-28T07:29:34;4.63;82.78
70830;SHT30;58451;51.550;7.208;2024-02-28T07:31:18;4.66;82.70
70830;SHT30;58451;51.550;7.208;2024-02-28T07:32:50;4.70;82.63
70830;SHT30;58451;51.550;7.208;2024-02-28T07:34:24;4.72;82.55
70830;SHT30;58451;51.550;7.208;2024-02-28T07:35:56;4.76;82.50
70830;SHT30;58451;51.550;7.208;2024-02-28T07:37:32;4.78;82.43
70830;SHT30;58451;51.550;7.208;2024-02-28T07:39:04;4.81;82.40
70830;SHT30;58451;51.550;7.208;2024-02-28T07:40:36;4.83;82.32
70830;SHT30;58451;51.550;7.208;2024-02-28T07:42:08;4.86;82.25
70830;SHT30;58451;51.550;7.208;2024-02-28T07:43:43;4.88;82.22
70830;SHT30;58451;51.550;7.208;2024-02-28T07:45:15;4.92;82.12
70830;SHT30;58451;51.550;7.208;2024-02-28T07:46:47;4.93;82.07
70830;SHT30;58451;51.550;7.208;2024-02-28T07:48:19;4.96;82.05
70830;SHT30;58451;51.550;7.208;2024-02-28T07:49:51;5.02;81.95
70830;SHT30;58451;51.550;7.208;2024-02-28T07:51:25;5.07;81.83
70830;SHT30;58451;51.550;7.208;2024-02-28T07:52:56;5.14;81.73
70830;SHT30;58451;51.550;7.208;2024-02-28T07:54:28;5.20;81.63
70830;SHT30;58451;51.550;7.208;2024-02-28T07:56:00;5.26;81.68
70830;SHT30;58451;51.550;7.208;2024-02-28T07:57:32;5.33;81.63
70830;SHT30;58451;51.550;7.208;2024-02-28T07:59:05;5.39;81.52
70830;SHT30;58451;51.550;7.208;2024-02-28T08:00:37;5.43;81.30
70830;SHT30;58451;51.550;7.208;2024-02-28T08:02:10;5.45;81.12
70830;SHT30;58451;51.550;7.208;2024-02-28T08:03:45;5.45;80.95
70830;SHT30;58451;51.550;7.208;2024-02-28T08:05:17;5.47;80.93
70830;SHT30;58451;51.550;7.208;2024-02-28T08:06:49;5.51;80.93
70830;SHT30;58451;51.550;7.208;2024-02-28T08:08:21;5.51;80.90
70830;SHT30;58451;51.550;7.208;2024-02-28T08:09:53;5.54;80.93
70830;SHT30;58451;51.550;7.208;2024-02-28T08:11:25;5.56;80.78
70830;SHT30;58451;51.550;7.208;2024-02-28T08:12:57;5.59;80.62
70830;SHT30;58451;51.550;7.208;2024-02-28T08:14:29;5.60;80.40
70830;SHT30;58451;51.550;7.208;2024-02-28T08:16:01;5.63;80.38
70830;SHT30;58451;51.550;7.208;2024-02-28T08:17:33;5.65;80.33
70830;SHT30;58451;51.550;7.208;2024-02-28T08:19:05;5.64;79.67
70830;SHT30;58451;51.550;7.208;2024-02-28T08:20:37;5.69;79.95
70830;SHT30;58451;51.550;7.208;2024-02-28T08:22:10;5.75;80.13
70830;SHT30;58451;51.550;7.208;2024-02-28T08:23:42;5.81;79.77
70830;SHT30;58451;51.550;7.208;2024-02-28T08:25:13;5.89;79.78
70830;SHT30;58451;51.550;7.208;2024-02-28T08:26:45;5.94;79.75
70830;SHT30;58451;51.550;7.208;2024-02-28T08:28:18;6.02;79.82
70830;SHT30;58451;51.550;7.208;2024-02-28T08:29:49;6.09;79.58
70830;SHT30;58451;51.550;7.208;2024-02-28T08:31:21;6.14;79.25
70830;SHT30;58451;51.550;7.208;2024-02-28T08:32:53;6.20;79.08
70830;SHT30;58451;51.550;7.208;2024-02-28T08:34:26;6.25;78.95
70830;SHT30;58451;51.550;7.208;2024-02-28T08:36:01;6.31;78.97
70830;SHT30;58451;51.550;7.208;2024-02-28T08:37:33;6.36;78.93
70830;SHT30;58451;51.550;7.208;2024-02-28T08:39:05;6.42;78.83
70830;SHT30;58451;51.550;7.208;2024-02-28T08:40:37;6.45;78.57
70830;SHT30;58451;51.550;7.208;2024-02-28T08:42:09;6.46;78.42
70830;SHT30;58451;51.550;7.208;2024-02-28T08:43:41;6.45;77.50
70830;SHT30;58451;51.550;7.208;2024-02-28T08:45:12;6.49;77.55
70830;SHT30;58451;51.550;7.208;2024-02-28T08:46:46;6.50;77.70
70830;SHT30;58451;51.550;7.208;2024-02-28T08:48:19;6.50;77.73
70830;SHT30;58451;51.550;7.208;2024-02-28T08:49:52;6.55;77.87
70830;SHT30;58451;51.550;7.208;2024-02-28T08:51:25;6.64;77.77
70830;SHT30;58451;51.550;7.208;2024-02-28T08:52:57;6.71;77.52
70830;SHT30;58451;51.550;7.208;2024-02-28T08:54:29;6.82;77.62
70830;SHT30;58451;51.550;7.208;2024-02-28T08:56:01;6.87;77.33
70830;SHT30;58451;51.550;7.208;2024-02-28T08:57:33;6.89;77.17
70830;SHT30;58451;51.550;7.208;2024-02-28T08:59:05;6.88;76.25
70830;SHT30;58451;51.550;7.208;2024-02-28T09:00:37;6.92;77.02
70830;SHT30;58451;51.550;7.208;2024-02-28T09:02:09;6.97;77.35
70830;SHT30;58451;51.550;7.208;2024-02-28T09:03:42;7.01;77.38
70830;SHT30;58451;51.550;7.208;2024-02-28T09:05:14;7.01;77.07
70830;SHT30;58451;51.550;7.208;2024-02-28T09:06:46;7.02;76.63
70830;SHT30;58451;51.550;7.208;2024-02-28T09:08:18;7.05;76.80
70830;SHT30;58451;51.550;7.208;2024-02-28T09:09:50;7.06;76.57
70830;SHT30;58451;51.550;7.208;2024-02-28T09:11:22;7.05;75.85
70830;SHT30;58451;51.550;7.208;2024-02-28T09:12:54;7.05;76.42
70830;SHT30;58451;51.550;7.208;2024-02-28T09:14:26;7.08;76.35
70830;SHT30;58451;51.550;7.208;2024-02-28T09:15:58;7.08;76.23
70830;SHT30;58451;51.550;7.208;2024-02-28T09:17:30;7.06;76.42
70830;SHT30;58451;51.550;7.208;2024-02-28T09:19:03;7.03;76.18
70830;SHT30;58451;51.550;7.208;2024-02-28T09:20:36;7.04;76.25
70830;SHT30;58451;51.550;7.208;2024-02-28T09:22:08;7.05;75.90
70830;SHT30;58451;51.550;7.208;2024-02-28T09:23:40;7.06;75.70
70830;SHT30;58451;51.550;7.208;2024-02-28T09:25:11;7.05;75.27
70830;SHT30;58451;51.550;7.208;2024-02-28T09:26:43;7.03;74.83
70830;SHT30;58451;51.550;7.208;2024-02-28T09:28:15;7.04;75.02
70830;SHT30;58451;51.550;7.208;2024-02-28T09:29:47;7.04;75.00
70830;SHT30;58451;51.550;7.208;2024-02-28T09:31:19;7.10;75.07
70830;SHT30;58451;51.550;7.208;2024-02-28T09:32:51;7.19;75.22
70830;SHT30;58451;51.550;7.208;2024-02-28T09:34:23;7.24;75.20
70830;SHT30;58451;51.550;7.208;2024-02-28T09:35:55;7.30;74.88
70830;SHT30;58451;51.550;7.208;2024-02-28T09:37:28;7.34;74.77
70830;SHT30;58451;51.550;7.208;2024-02-28T09:39:00;7.36;74.75
70830;SHT30;58451;51.550;7.208;2024-02-28T09:40:32;7.39;74.25
70830;SHT30;58451;51.550;7.208;2024-02-28T09:42:05;7.45;73.97
70830;SHT30;58451;51.550;7.208;2024-02-28T09:43:42;7.48;73.43
70830;SHT30;58451;51.550;7.208;2024-02-28T09:45:17;7.54;73.80
70830;SHT30;58451;51.550;7.208;2024-02-28T09:46:53;7.59;73.37
70830;SHT30;58451;51.550;7.208;2024-02-28T09:48:25;7.63;73.15
70830;SHT30;58451;51.550;7.208;2024-02-28T09:50:02;7.66;72.65
70830;SHT30;58451;51.550;7.208;2024-02-28T09:51:35;7.78;72.92
70830;SHT30;58451;51.550;7.208;2024-02-28T09:53:08;7.90;72.73